GCSBL EGHQ-EGHH
Flight info
| Callsign | GCSBL |
|---|---|
| Flight time | N/A |
| Altitude | 4000 |
| Route | DAWLY DCT BRIPO DCT GIBSO |
| Aircraft | C172/L-SFG/C |
Departure
| Time | 2026-05-04 11:33 |
|---|---|
| Airport | Cornwall Airport Newquay (EGHQ) |
Arrival
| Time | N/A |
|---|---|
| Airport | Bournemouth Airport (EGHH) |
| Time | Latitude | Longitude | Altitude | Speed | Heading |
|---|---|---|---|---|---|
| 2026-05-04 11:33 | 50.47002 | -4.86307 | 4139 ft | 97 kts | 65° |
| 2026-05-04 11:33 | 50.47277 | -4.85341 | 4144 ft | 98 kts | 66° |
| 2026-05-04 11:33 | 50.47585 | -4.84384 | 4144 ft | 99 kts | 60° |
| 2026-05-04 11:34 | 50.47788 | -4.83364 | 4129 ft | 98 kts | 85° |
| 2026-05-04 11:34 | 50.47809 | -4.82298 | 4128 ft | 97 kts | 85° |
| 2026-05-04 11:34 | 50.47872 | -4.81245 | 4131 ft | 97 kts | 83° |
| 2026-05-04 11:34 | 50.47942 | -4.80187 | 4139 ft | 97 kts | 82° |
| 2026-05-04 11:35 | 50.48015 | -4.79133 | 4139 ft | 98 kts | 82° |
| 2026-05-04 11:35 | 50.48091 | -4.78059 | 4139 ft | 98 kts | 82° |
| 2026-05-04 11:35 | 50.48167 | -4.77005 | 4130 ft | 98 kts | 82° |
| 2026-05-04 11:35 | 50.48245 | -4.75950 | 4136 ft | 96 kts | 82° |
| 2026-05-04 11:36 | 50.48296 | -4.75260 | 4146 ft | 95 kts | 82° |
| 2026-05-04 11:36 | 50.48398 | -4.73876 | 4142 ft | 95 kts | 81° |
| 2026-05-04 11:36 | 50.48476 | -4.72849 | 4138 ft | 95 kts | 81° |
| 2026-05-04 11:36 | 50.48553 | -4.71822 | 4137 ft | 94 kts | 81° |
| 2026-05-04 11:37 | 50.48605 | -4.71139 | 4139 ft | 94 kts | 81° |
| 2026-05-04 11:37 | 50.48709 | -4.69770 | 4136 ft | 94 kts | 81° |
| 2026-05-04 11:37 | 50.48788 | -4.68746 | 4136 ft | 94 kts | 81° |
| 2026-05-04 11:37 | 50.48866 | -4.67721 | 4139 ft | 94 kts | 82° |
| 2026-05-04 11:38 | 50.48945 | -4.66683 | 4138 ft | 95 kts | 82° |
| 2026-05-04 11:38 | 50.49024 | -4.65653 | 4137 ft | 96 kts | 82° |
| 2026-05-04 11:38 | 50.49104 | -4.64606 | 4136 ft | 96 kts | 82° |
| 2026-05-04 11:38 | 50.49183 | -4.63565 | 4134 ft | 96 kts | 82° |